sensor_id;sensor_type;location;lat;lon;timestamp;P1;durP1;ratioP1;P2;durP2;ratioP2
9763;SDS011;4921;43.214;27.936;2023-07-31T00:01:56;2.90;;;2.33;;
9763;SDS011;4921;43.214;27.936;2023-07-31T00:04:23;3.30;;;2.40;;
9763;SDS011;4921;43.214;27.936;2023-07-31T00:06:49;3.83;;;2.03;;
9763;SDS011;4921;43.214;27.936;2023-07-31T00:09:18;2.43;;;2.20;;
9763;SDS011;4921;43.214;27.936;2023-07-31T00:11:45;2.70;;;2.33;;
9763;SDS011;4921;43.214;27.936;2023-07-31T00:14:12;3.17;;;2.10;;
9763;SDS011;4921;43.214;27.936;2023-07-31T00:16:39;4.20;;;2.30;;
9763;SDS011;4921;43.214;27.936;2023-07-31T00:19:06;3.27;;;2.53;;
9763;SDS011;4921;43.214;27.936;2023-07-31T00:21:33;3.67;;;2.40;;
9763;SDS011;4921;43.214;27.936;2023-07-31T00:24:00;2.77;;;2.13;;
9763;SDS011;4921;43.214;27.936;2023-07-31T00:26:28;2.93;;;2.40;;
9763;SDS011;4921;43.214;27.936;2023-07-31T00:28:55;3.53;;;2.27;;
9763;SDS011;4921;43.214;27.936;2023-07-31T00:31:22;4.00;;;2.37;;
9763;SDS011;4921;43.214;27.936;2023-07-31T00:33:49;4.03;;;2.57;;
9763;SDS011;4921;43.214;27.936;2023-07-31T00:36:16;4.77;;;2.30;;
9763;SDS011;4921;43.214;27.936;2023-07-31T00:38:44;2.70;;;2.50;;
9763;SDS011;4921;43.214;27.936;2023-07-31T00:41:11;2.07;;;1.97;;
9763;SDS011;4921;43.214;27.936;2023-07-31T00:43:39;3.40;;;2.23;;
9763;SDS011;4921;43.214;27.936;2023-07-31T00:46:06;5.53;;;2.63;;
9763;SDS011;4921;43.214;27.936;2023-07-31T00:48:33;3.00;;;2.50;;
9763;SDS011;4921;43.214;27.936;2023-07-31T00:51:02;2.27;;;2.17;;
9763;SDS011;4921;43.214;27.936;2023-07-31T00:53:29;2.40;;;2.17;;
9763;SDS011;4921;43.214;27.936;2023-07-31T00:55:56;2.27;;;2.10;;
9763;SDS011;4921;43.214;27.936;2023-07-31T00:58:24;4.73;;;2.23;;
9763;SDS011;4921;43.214;27.936;2023-07-31T01:00:52;2.73;;;2.20;;
9763;SDS011;4921;43.214;27.936;2023-07-31T01:03:19;3.20;;;2.40;;
9763;SDS011;4921;43.214;27.936;2023-07-31T01:05:49;2.67;;;2.13;;
9763;SDS011;4921;43.214;27.936;2023-07-31T01:08:28;3.87;;;2.73;;
9763;SDS011;4921;43.214;27.936;2023-07-31T01:11:05;2.80;;;2.60;;
9763;SDS011;4921;43.214;27.936;2023-07-31T01:13:36;2.67;;;2.20;;
9763;SDS011;4921;43.214;27.936;2023-07-31T01:16:05;2.97;;;2.40;;
9763;SDS011;4921;43.214;27.936;2023-07-31T01:18:32;2.67;;;2.47;;
9763;SDS011;4921;43.214;27.936;2023-07-31T01:21:01;2.50;;;2.30;;
9763;SDS011;4921;43.214;27.936;2023-07-31T01:23:47;3.03;;;2.47;;
9763;SDS011;4921;43.214;27.936;2023-07-31T01:26:30;2.87;;;2.60;;
9763;SDS011;4921;43.214;27.936;2023-07-31T01:29:01;2.47;;;2.20;;
9763;SDS011;4921;43.214;27.936;2023-07-31T01:31:33;5.17;;;2.57;;
9763;SDS011;4921;43.214;27.936;2023-07-31T01:34:03;2.80;;;2.37;;
9763;SDS011;4921;43.214;27.936;2023-07-31T01:36:30;3.10;;;2.47;;
9763;SDS011;4921;43.214;27.936;2023-07-31T01:38:58;2.93;;;2.33;;
9763;SDS011;4921;43.214;27.936;2023-07-31T01:41:25;2.97;;;2.53;;
9763;SDS011;4921;43.214;27.936;2023-07-31T01:43:54;6.80;;;3.10;;
9763;SDS011;4921;43.214;27.936;2023-07-31T01:46:21;5.33;;;2.80;;
9763;SDS011;4921;43.214;27.936;2023-07-31T01:48:48;8.97;;;2.83;;
9763;SDS011;4921;43.214;27.936;2023-07-31T01:51:16;4.13;;;2.57;;
9763;SDS011;4921;43.214;27.936;2023-07-31T01:53:43;4.73;;;3.03;;
9763;SDS011;4921;43.214;27.936;2023-07-31T01:56:10;2.37;;;2.03;;
9763;SDS011;4921;43.214;27.936;2023-07-31T01:58:38;3.03;;;2.67;;
9763;SDS011;4921;43.214;27.936;2023-07-31T02:01:05;2.80;;;2.60;;
9763;SDS011;4921;43.214;27.936;2023-07-31T02:03:32;2.40;;;2.13;;
9763;SDS011;4921;43.214;27.936;2023-07-31T02:05:59;3.37;;;2.00;;
9763;SDS011;4921;43.214;27.936;2023-07-31T02:08:26;4.73;;;2.47;;
9763;SDS011;4921;43.214;27.936;2023-07-31T02:10:53;3.07;;;2.40;;
9763;SDS011;4921;43.214;27.936;2023-07-31T02:13:20;5.67;;;2.47;;
9763;SDS011;4921;43.214;27.936;2023-07-31T02:15:49;5.53;;;2.90;;
9763;SDS011;4921;43.214;27.936;2023-07-31T02:18:16;5.30;;;2.73;;
9763;SDS011;4921;43.214;27.936;2023-07-31T02:20:48;3.60;;;2.60;;
9763;SDS011;4921;43.214;27.936;2023-07-31T02:23:16;3.97;;;3.23;;
9763;SDS011;4921;43.214;27.936;2023-07-31T02:25:43;5.20;;;2.83;;
9763;SDS011;4921;43.214;27.936;2023-07-31T02:28:10;6.13;;;2.90;;
9763;SDS011;4921;43.214;27.936;2023-07-31T02:30:37;3.40;;;2.77;;
9763;SDS011;4921;43.214;27.936;2023-07-31T02:33:05;2.93;;;2.73;;
9763;SDS011;4921;43.214;27.936;2023-07-31T02:35:32;2.73;;;2.60;;
9763;SDS011;4921;43.214;27.936;2023-07-31T02:37:59;3.57;;;2.80;;
9763;SDS011;4921;43.214;27.936;2023-07-31T02:40:26;2.90;;;2.70;;
9763;SDS011;4921;43.214;27.936;2023-07-31T02:42:53;3.13;;;2.87;;
9763;SDS011;4921;43.214;27.936;2023-07-31T02:45:20;3.43;;;2.70;;
9763;SDS011;4921;43.214;27.936;2023-07-31T02:47:47;3.30;;;2.80;;
9763;SDS011;4921;43.214;27.936;2023-07-31T02:50:15;3.33;;;2.93;;
9763;SDS011;4921;43.214;27.936;2023-07-31T02:52:42;4.27;;;2.83;;
9763;SDS011;4921;43.214;27.936;2023-07-31T02:55:09;6.70;;;3.20;;
9763;SDS011;4921;43.214;27.936;2023-07-31T02:57:36;2.70;;;2.43;;
9763;SDS011;4921;43.214;27.936;2023-07-31T03:00:03;3.77;;;3.10;;
9763;SDS011;4921;43.214;27.936;2023-07-31T03:02:32;5.00;;;3.07;;
9763;SDS011;4921;43.214;27.936;2023-07-31T03:04:59;4.70;;;3.07;;
9763;SDS011;4921;43.214;27.936;2023-07-31T03:07:27;2.33;;;2.13;;
9763;SDS011;4921;43.214;27.936;2023-07-31T03:09:55;3.60;;;2.40;;
9763;SDS011;4921;43.214;27.936;2023-07-31T03:12:22;4.20;;;2.37;;
9763;SDS011;4921;43.214;27.936;2023-07-31T03:14:49;3.00;;;2.00;;
9763;SDS011;4921;43.214;27.936;2023-07-31T03:17:16;6.37;;;2.10;;
9763;SDS011;4921;43.214;27.936;2023-07-31T03:19:43;3.07;;;2.40;;
9763;SDS011;4921;43.214;27.936;2023-07-31T03:22:10;4.70;;;2.47;;
9763;SDS011;4921;43.214;27.936;2023-07-31T03:24:38;2.77;;;2.10;;
9763;SDS011;4921;43.214;27.936;2023-07-31T03:27:05;6.53;;;2.40;;
9763;SDS011;4921;43.214;27.936;2023-07-31T03:29:32;3.60;;;2.10;;
9763;SDS011;4921;43.214;27.936;2023-07-31T03:31:59;3.83;;;2.43;;
9763;SDS011;4921;43.214;27.936;2023-07-31T03:34:26;2.37;;;2.17;;
9763;SDS011;4921;43.214;27.936;2023-07-31T03:36:53;2.20;;;2.10;;
9763;SDS011;4921;43.214;27.936;2023-07-31T03:39:20;4.00;;;2.37;;
9763;SDS011;4921;43.214;27.936;2023-07-31T03:41:49;5.67;;;2.40;;
9763;SDS011;4921;43.214;27.936;2023-07-31T03:44:15;2.37;;;2.17;;
9763;SDS011;4921;43.214;27.936;2023-07-31T03:46:42;4.53;;;2.60;;
9763;SDS011;4921;43.214;27.936;2023-07-31T03:49:10;3.73;;;2.23;;
9763;SDS011;4921;43.214;27.936;2023-07-31T03:51:36;3.23;;;2.20;;
9763;SDS011;4921;43.214;27.936;2023-07-31T03:54:03;4.07;;;2.30;;
9763;SDS011;4921;43.214;27.936;2023-07-31T03:56:30;3.27;;;2.17;;
9763;SDS011;4921;43.214;27.936;2023-07-31T03:58:59;3.10;;;2.10;;
9763;SDS011;4921;43.214;27.936;2023-07-31T04:01:26;3.00;;;1.97;;
9763;SDS011;4921;43.214;27.936;2023-07-31T04:03:53;3.13;;;2.30;;
9763;SDS011;4921;43.214;27.936;2023-07-31T04:06:20;2.07;;;1.87;;
9763;SDS011;4921;43.214;27.936;2023-07-31T04:08:47;2.40;;;1.90;;
9763;SDS011;4921;43.214;27.936;2023-07-31T04:11:14;6.53;;;2.43;;
9763;SDS011;4921;43.214;27.936;2023-07-31T04:13:41;3.77;;;2.40;;
9763;SDS011;4921;43.214;27.936;2023-07-31T04:16:09;3.67;;;2.63;;
9763;SDS011;4921;43.214;27.936;2023-07-31T04:18:37;3.40;;;3.10;;
9763;SDS011;4921;43.214;27.936;2023-07-31T04:21:06;3.73;;;3.23;;
9763;SDS011;4921;43.214;27.936;2023-07-31T04:23:35;5.07;;;3.47;;
9763;SDS011;4921;43.214;27.936;2023-07-31T04:26:02;7.40;;;3.40;;
9763;SDS011;4921;43.214;27.936;2023-07-31T04:28:29;6.93;;;3.33;;
9763;SDS011;4921;43.214;27.936;2023-07-31T04:30:57;7.17;;;3.77;;
9763;SDS011;4921;43.214;27.936;2023-07-31T04:33:25;5.43;;;3.37;;
9763;SDS011;4921;43.214;27.936;2023-07-31T04:35:53;9.03;;;4.20;;
9763;SDS011;4921;43.214;27.936;2023-07-31T04:38:20;14.77;;;5.83;;
9763;SDS011;4921;43.214;27.936;2023-07-31T04:40:48;8.07;;;4.10;;
9763;SDS011;4921;43.214;27.936;2023-07-31T04:43:15;6.33;;;3.63;;
9763;SDS011;4921;43.214;27.936;2023-07-31T04:45:42;7.57;;;3.33;;
9763;SDS011;4921;43.214;27.936;2023-07-31T04:48:12;4.97;;;3.10;;
9763;SDS011;4921;43.214;27.936;2023-07-31T04:50:41;3.00;;;2.70;;
9763;SDS011;4921;43.214;27.936;2023-07-31T04:53:08;7.37;;;3.30;;
9763;SDS011;4921;43.214;27.936;2023-07-31T04:55:35;5.03;;;3.33;;
9763;SDS011;4921;43.214;27.936;2023-07-31T04:58:02;6.60;;;2.97;;
9763;SDS011;4921;43.214;27.936;2023-07-31T05:00:29;6.77;;;3.10;;
9763;SDS011;4921;43.214;27.936;2023-07-31T05:02:56;4.70;;;3.47;;
9763;SDS011;4921;43.214;27.936;2023-07-31T05:05:23;4.13;;;2.80;;
9763;SDS011;4921;43.214;27.936;2023-07-31T05:07:51;7.83;;;3.73;;
9763;SDS011;4921;43.214;27.936;2023-07-31T05:10:18;4.60;;;2.80;;
9763;SDS011;4921;43.214;27.936;2023-07-31T05:12:45;5.30;;;3.10;;
9763;SDS011;4921;43.214;27.936;2023-07-31T05:15:12;3.13;;;2.37;;
9763;SDS011;4921;43.214;27.936;2023-07-31T05:17:39;4.70;;;2.87;;
9763;SDS011;4921;43.214;27.936;2023-07-31T05:20:07;5.00;;;3.03;;
9763;SDS011;4921;43.214;27.936;2023-07-31T05:22:34;4.03;;;2.47;;
9763;SDS011;4921;43.214;27.936;2023-07-31T05:25:03;6.93;;;3.20;;
9763;SDS011;4921;43.214;27.936;2023-07-31T05:27:30;6.47;;;3.00;;
9763;SDS011;4921;43.214;27.936;2023-07-31T05:29:58;4.10;;;2.80;;
9763;SDS011;4921;43.214;27.936;2023-07-31T05:32:24;3.93;;;2.60;;
9763;SDS011;4921;43.214;27.936;2023-07-31T05:34:51;4.77;;;2.60;;
9763;SDS011;4921;43.214;27.936;2023-07-31T05:37:19;3.00;;;2.40;;
9763;SDS011;4921;43.214;27.936;2023-07-31T05:39:46;2.43;;;2.23;;
9763;SDS011;4921;43.214;27.936;2023-07-31T05:42:14;2.90;;;2.57;;
9763;SDS011;4921;43.214;27.936;2023-07-31T05:44:41;3.27;;;2.70;;
9763;SDS011;4921;43.214;27.936;2023-07-31T05:47:08;3.63;;;2.83;;
9763;SDS011;4921;43.214;27.936;2023-07-31T05:49:36;5.70;;;2.43;;
9763;SDS011;4921;43.214;27.936;2023-07-31T05:52:03;4.07;;;2.90;;
9763;SDS011;4921;43.214;27.936;2023-07-31T05:54:31;2.93;;;2.50;;
9763;SDS011;4921;43.214;27.936;2023-07-31T05:56:58;4.77;;;2.73;;
9763;SDS011;4921;43.214;27.936;2023-07-31T05:59:27;3.07;;;2.67;;
9763;SDS011;4921;43.214;27.936;2023-07-31T06:01:54;2.87;;;2.47;;
9763;SDS011;4921;43.214;27.936;2023-07-31T06:04:21;4.17;;;2.20;;
9763;SDS011;4921;43.214;27.936;2023-07-31T06:06:50;3.07;;;2.67;;
9763;SDS011;4921;43.214;27.936;2023-07-31T06:09:17;2.40;;;2.20;;
9763;SDS011;4921;43.214;27.936;2023-07-31T06:11:45;7.57;;;3.10;;
9763;SDS011;4921;43.214;27.936;2023-07-31T06:14:12;3.70;;;2.70;;
9763;SDS011;4921;43.214;27.936;2023-07-31T06:16:41;2.80;;;2.60;;
9763;SDS011;4921;43.214;27.936;2023-07-31T06:19:09;8.43;;;2.90;;
9763;SDS011;4921;43.214;27.936;2023-07-31T06:21:36;2.70;;;2.50;;
9763;SDS011;4921;43.214;27.936;2023-07-31T06:24:03;5.70;;;2.63;;
9763;SDS011;4921;43.214;27.936;2023-07-31T06:26:30;7.77;;;3.37;;
9763;SDS011;4921;43.214;27.936;2023-07-31T06:28:57;3.80;;;2.47;;
9763;SDS011;4921;43.214;27.936;2023-07-31T06:31:24;4.10;;;2.50;;
9763;SDS011;4921;43.214;27.936;2023-07-31T06:33:53;7.00;;;3.33;;
9763;SDS011;4921;43.214;27.936;2023-07-31T06:36:20;4.60;;;2.80;;
9763;SDS011;4921;43.214;27.936;2023-07-31T06:38:48;5.23;;;3.70;;
9763;SDS011;4921;43.214;27.936;2023-07-31T06:41:15;3.13;;;2.40;;
9763;SDS011;4921;43.214;27.936;2023-07-31T06:43:42;2.67;;;2.30;;
9763;SDS011;4921;43.214;27.936;2023-07-31T06:46:09;2.93;;;2.60;;
9763;SDS011;4921;43.214;27.936;2023-07-31T06:48:36;6.93;;;3.17;;
9763;SDS011;4921;43.214;27.936;2023-07-31T06:51:04;4.67;;;3.57;;
9763;SDS011;4921;43.214;27.936;2023-07-31T06:53:31;6.87;;;3.60;;
9763;SDS011;4921;43.214;27.936;2023-07-31T06:55:58;8.00;;;5.33;;
9763;SDS011;4921;43.214;27.936;2023-07-31T06:58:25;9.27;;;6.00;;
9763;SDS011;4921;43.214;27.936;2023-07-31T07:00:52;8.77;;;6.23;;
9763;SDS011;4921;43.214;27.936;2023-07-31T07:03:19;11.73;;;7.33;;
9763;SDS011;4921;43.214;27.936;2023-07-31T07:05:46;6.43;;;5.80;;
9763;SDS011;4921;43.214;27.936;2023-07-31T07:08:15;5.00;;;4.50;;
9763;SDS011;4921;43.214;27.936;2023-07-31T07:10:42;4.97;;;4.57;;
9763;SDS011;4921;43.214;27.936;2023-07-31T07:13:09;7.93;;;5.40;;
9763;SDS011;4921;43.214;27.936;2023-07-31T07:15:37;5.33;;;4.20;;
9763;SDS011;4921;43.214;27.936;2023-07-31T07:18:04;4.73;;;4.20;;
9763;SDS011;4921;43.214;27.936;2023-07-31T07:20:32;10.70;;;4.53;;
9763;SDS011;4921;43.214;27.936;2023-07-31T07:22:59;6.47;;;4.30;;
9763;SDS011;4921;43.214;27.936;2023-07-31T07:25:27;11.20;;;4.70;;
9763;SDS011;4921;43.214;27.936;2023-07-31T07:28:10;5.77;;;3.93;;
9763;SDS011;4921;43.214;27.936;2023-07-31T07:31:01;6.57;;;3.87;;
9763;SDS011;4921;43.214;27.936;2023-07-31T07:33:46;4.80;;;4.30;;
9763;SDS011;4921;43.214;27.936;2023-07-31T07:39:28;6.47;;;3.67;;
9763;SDS011;4921;43.214;27.936;2023-07-31T07:42:08;8.27;;;4.30;;
9763;SDS011;4921;43.214;27.936;2023-07-31T07:44:35;8.10;;;4.17;;
9763;SDS011;4921;43.214;27.936;2023-07-31T07:47:02;5.90;;;3.77;;
9763;SDS011;4921;43.214;27.936;2023-07-31T07:49:31;6.00;;;3.67;;
9763;SDS011;4921;43.214;27.936;2023-07-31T07:51:59;4.80;;;3.77;;
9763;SDS011;4921;43.214;27.936;2023-07-31T07:54:26;5.37;;;4.10;;
9763;SDS011;4921;43.214;27.936;2023-07-31T07:56:53;4.43;;;3.70;;
9763;SDS011;4921;43.214;27.936;2023-07-31T07:59:22;4.43;;;3.90;;
9763;SDS011;4921;43.214;27.936;2023-07-31T08:01:49;4.97;;;4.10;;
9763;SDS011;4921;43.214;27.936;2023-07-31T08:04:16;6.27;;;3.90;;
9763;SDS011;4921;43.214;27.936;2023-07-31T08:06:43;5.70;;;3.90;;
9763;SDS011;4921;43.214;27.936;2023-07-31T08:09:10;3.60;;;3.33;;
9763;SDS011;4921;43.214;27.936;2023-07-31T08:11:37;3.40;;;3.20;;
9763;SDS011;4921;43.214;27.936;2023-07-31T08:14:04;3.73;;;3.50;;
9763;SDS011;4921;43.214;27.936;2023-07-31T08:16:32;3.90;;;3.47;;
9763;SDS011;4921;43.214;27.936;2023-07-31T08:18:59;3.83;;;3.63;;
9763;SDS011;4921;43.214;27.936;2023-07-31T08:21:26;3.83;;;3.40;;
9763;SDS011;4921;43.214;27.936;2023-07-31T08:23:54;3.70;;;3.40;;
9763;SDS011;4921;43.214;27.936;2023-07-31T08:26:21;3.27;;;3.07;;
9763;SDS011;4921;43.214;27.936;2023-07-31T08:28:49;5.67;;;4.00;;
9763;SDS011;4921;43.214;27.936;2023-07-31T08:31:17;4.47;;;3.77;;
9763;SDS011;4921;43.214;27.936;2023-07-31T08:33:46;4.63;;;4.10;;
9763;SDS011;4921;43.214;27.936;2023-07-31T08:36:14;4.67;;;4.17;;
9763;SDS011;4921;43.214;27.936;2023-07-31T08:38:41;5.13;;;4.53;;
9763;SDS011;4921;43.214;27.936;2023-07-31T08:41:08;4.47;;;4.07;;
9763;SDS011;4921;43.214;27.936;2023-07-31T08:43:36;5.07;;;4.00;;
9763;SDS011;4921;43.214;27.936;2023-07-31T08:46:05;3.87;;;3.40;;
9763;SDS011;4921;43.214;27.936;2023-07-31T08:48:32;4.23;;;3.30;;
9763;SDS011;4921;43.214;27.936;2023-07-31T08:51:00;3.60;;;3.30;;
9763;SDS011;4921;43.214;27.936;2023-07-31T08:53:27;3.80;;;3.23;;
9763;SDS011;4921;43.214;27.936;2023-07-31T08:55:54;3.03;;;2.83;;
9763;SDS011;4921;43.214;27.936;2023-07-31T08:58:24;7.07;;;3.73;;
9763;SDS011;4921;43.214;27.936;2023-07-31T09:00:54;3.53;;;3.23;;
9763;SDS011;4921;43.214;27.936;2023-07-31T09:03:23;3.80;;;3.40;;
9763;SDS011;4921;43.214;27.936;2023-07-31T09:05:52;3.80;;;3.30;;
9763;SDS011;4921;43.214;27.936;2023-07-31T09:08:23;3.40;;;3.10;;
9763;SDS011;4921;43.214;27.936;2023-07-31T09:10:53;3.70;;;3.40;;
9763;SDS011;4921;43.214;27.936;2023-07-31T09:13:20;3.97;;;3.17;;
9763;SDS011;4921;43.214;27.936;2023-07-31T09:15:48;4.13;;;3.57;;
9763;SDS011;4921;43.214;27.936;2023-07-31T09:18:15;4.37;;;3.60;;
9763;SDS011;4921;43.214;27.936;2023-07-31T09:20:45;4.83;;;3.50;;
9763;SDS011;4921;43.214;27.936;2023-07-31T09:23:13;3.77;;;3.13;;
9763;SDS011;4921;43.214;27.936;2023-07-31T09:25:43;3.50;;;3.30;;
9763;SDS011;4921;43.214;27.936;2023-07-31T09:28:11;4.23;;;3.63;;
9763;SDS011;4921;43.214;27.936;2023-07-31T09:30:45;4.80;;;3.53;;
9763;SDS011;4921;43.214;27.936;2023-07-31T09:33:14;3.37;;;3.17;;
9763;SDS011;4921;43.214;27.936;2023-07-31T09:35:41;3.27;;;3.07;;
9763;SDS011;4921;43.214;27.936;2023-07-31T09:38:09;5.00;;;3.13;;
9763;SDS011;4921;43.214;27.936;2023-07-31T09:40:37;3.77;;;3.57;;
9763;SDS011;4921;43.214;27.936;2023-07-31T09:43:07;4.60;;;3.60;;
9763;SDS011;4921;43.214;27.936;2023-07-31T09:45:36;4.10;;;3.33;;
9763;SDS011;4921;43.214;27.936;2023-07-31T09:48:06;4.50;;;3.70;;
9763;SDS011;4921;43.214;27.936;2023-07-31T09:50:34;5.20;;;3.40;;
9763;SDS011;4921;43.214;27.936;2023-07-31T09:53:03;3.47;;;3.27;;
9763;SDS011;4921;43.214;27.936;2023-07-31T09:55:30;3.43;;;3.23;;
9763;SDS011;4921;43.214;27.936;2023-07-31T09:57:58;3.40;;;3.10;;
9763;SDS011;4921;43.214;27.936;2023-07-31T10:00:27;3.90;;;3.60;;
9763;SDS011;4921;43.214;27.936;2023-07-31T10:02:57;3.20;;;3.00;;
9763;SDS011;4921;43.214;27.936;2023-07-31T10:05:25;4.13;;;2.90;;
9763;SDS011;4921;43.214;27.936;2023-07-31T10:07:57;4.20;;;3.87;;
9763;SDS011;4921;43.214;27.936;2023-07-31T10:10:24;4.73;;;4.20;;
9763;SDS011;4921;43.214;27.936;2023-07-31T10:12:52;3.60;;;3.40;;
9763;SDS011;4921;43.214;27.936;2023-07-31T10:15:20;3.87;;;3.57;;
9763;SDS011;4921;43.214;27.936;2023-07-31T10:17:49;4.43;;;3.20;;
9763;SDS011;4921;43.214;27.936;2023-07-31T10:20:17;3.20;;;3.00;;
9763;SDS011;4921;43.214;27.936;2023-07-31T10:22:44;4.23;;;3.37;;
9763;SDS011;4921;43.214;27.936;2023-07-31T10:25:12;4.83;;;3.90;;
9763;SDS011;4921;43.214;27.936;2023-07-31T10:27:39;4.97;;;3.40;;
9763;SDS011;4921;43.214;27.936;2023-07-31T10:30:08;3.70;;;3.40;;
9763;SDS011;4921;43.214;27.936;2023-07-31T10:32:37;3.57;;;3.37;;
9763;SDS011;4921;43.214;27.936;2023-07-31T10:35:08;4.77;;;3.13;;
9763;SDS011;4921;43.214;27.936;2023-07-31T10:37:37;3.43;;;3.13;;
9763;SDS011;4921;43.214;27.936;2023-07-31T10:40:06;3.13;;;3.03;;
9763;SDS011;4921;43.214;27.936;2023-07-31T10:42:38;3.40;;;3.10;;
9763;SDS011;4921;43.214;27.936;2023-07-31T10:45:12;3.67;;;3.37;;
9763;SDS011;4921;43.214;27.936;2023-07-31T10:47:42;3.10;;;2.90;;
9763;SDS011;4921;43.214;27.936;2023-07-31T10:50:16;4.07;;;3.77;;
9763;SDS011;4921;43.214;27.936;2023-07-31T10:52:48;3.70;;;3.40;;
9763;SDS011;4921;43.214;27.936;2023-07-31T10:55:24;3.20;;;3.00;;
9763;SDS011;4921;43.214;27.936;2023-07-31T10:57:52;4.23;;;3.23;;
9763;SDS011;4921;43.214;27.936;2023-07-31T11:00:21;4.55;;;2.97;;
9763;SDS011;4921;43.214;27.936;2023-07-31T11:02:57;3.20;;;3.00;;
9763;SDS011;4921;43.214;27.936;2023-07-31T11:05:45;3.50;;;3.20;;
9763;SDS011;4921;43.214;27.936;2023-07-31T11:08:15;3.17;;;3.00;;
9763;SDS011;4921;43.214;27.936;2023-07-31T11:10:43;3.35;;;3.05;;
9763;SDS011;4921;43.214;27.936;2023-07-31T11:13:11;3.13;;;3.00;;
9763;SDS011;4921;43.214;27.936;2023-07-31T11:15:38;3.63;;;3.03;;
9763;SDS011;4921;43.214;27.936;2023-07-31T11:18:06;3.30;;;3.10;;
9763;SDS011;4921;43.214;27.936;2023-07-31T11:20:33;5.50;;;3.33;;
9763;SDS011;4921;43.214;27.936;2023-07-31T11:23:03;2.90;;;2.80;;
9763;SDS011;4921;43.214;27.936;2023-07-31T11:25:32;3.15;;;2.95;;
9763;SDS011;4921;43.214;27.936;2023-07-31T11:28:02;3.25;;;3.05;;
9763;SDS011;4921;43.214;27.936;2023-07-31T11:30:30;3.97;;;3.50;;
9763;SDS011;4921;43.214;27.936;2023-07-31T11:32:58;2.90;;;2.70;;
9763;SDS011;4921;43.214;27.936;2023-07-31T11:35:26;2.80;;;2.70;;
9763;SDS011;4921;43.214;27.936;2023-07-31T11:37:53;2.78;;;2.67;;
9763;SDS011;4921;43.214;27.936;2023-07-31T11:40:22;2.47;;;2.37;;
9763;SDS011;4921;43.214;27.936;2023-07-31T11:42:54;2.70;;;2.60;;
9763;SDS011;4921;43.214;27.936;2023-07-31T11:45:21;2.60;;;2.50;;
9763;SDS011;4921;43.214;27.936;2023-07-31T11:47:51;2.80;;;2.60;;
9763;SDS011;4921;43.214;27.936;2023-07-31T11:50:20;2.97;;;2.77;;
9763;SDS011;4921;43.214;27.936;2023-07-31T11:52:48;2.50;;;2.40;;
9763;SDS011;4921;43.214;27.936;2023-07-31T11:55:16;2.60;;;2.50;;
9763;SDS011;4921;43.214;27.936;2023-07-31T11:57:45;4.13;;;2.80;;
9763;SDS011;4921;43.214;27.936;2023-07-31T12:00:14;2.70;;;2.60;;
9763;SDS011;4921;43.214;27.936;2023-07-31T12:02:42;2.57;;;2.37;;
9763;SDS011;4921;43.214;27.936;2023-07-31T12:05:10;4.67;;;3.00;;
9763;SDS011;4921;43.214;27.936;2023-07-31T12:07:43;2.83;;;2.63;;
9763;SDS011;4921;43.214;27.936;2023-07-31T12:10:21;3.00;;;2.80;;
9763;SDS011;4921;43.214;27.936;2023-07-31T12:12:56;3.43;;;3.23;;
9763;SDS011;4921;43.214;27.936;2023-07-31T12:15:29;3.30;;;3.10;;
9763;SDS011;4921;43.214;27.936;2023-07-31T12:17:58;3.37;;;3.07;;
9763;SDS011;4921;43.214;27.936;2023-07-31T12:20:26;3.50;;;3.20;;
9763;SDS011;4921;43.214;27.936;2023-07-31T12:22:55;3.80;;;2.90;;
9763;SDS011;4921;43.214;27.936;2023-07-31T12:25:28;4.00;;;3.70;;
9763;SDS011;4921;43.214;27.936;2023-07-31T12:27:57;3.70;;;3.50;;
9763;SDS011;4921;43.214;27.936;2023-07-31T12:30:27;5.13;;;3.23;;
9763;SDS011;4921;43.214;27.936;2023-07-31T12:32:55;3.60;;;3.27;;
9763;SDS011;4921;43.214;27.936;2023-07-31T12:35:22;3.70;;;3.40;;
9763;SDS011;4921;43.214;27.936;2023-07-31T12:37:49;4.97;;;3.83;;
9763;SDS011;4921;43.214;27.936;2023-07-31T12:40:16;4.27;;;3.90;;
9763;SDS011;4921;43.214;27.936;2023-07-31T12:42:43;4.10;;;3.70;;
9763;SDS011;4921;43.214;27.936;2023-07-31T12:45:12;5.63;;;3.67;;
9763;SDS011;4921;43.214;27.936;2023-07-31T12:47:40;4.60;;;4.10;;
9763;SDS011;4921;43.214;27.936;2023-07-31T12:50:07;4.63;;;4.20;;
9763;SDS011;4921;43.214;27.936;2023-07-31T12:52:34;5.07;;;2.87;;
9763;SDS011;4921;43.214;27.936;2023-07-31T12:55:02;4.00;;;3.70;;
9763;SDS011;4921;43.214;27.936;2023-07-31T12:57:29;3.50;;;3.30;;
9763;SDS011;4921;43.214;27.936;2023-07-31T12:59:57;3.93;;;3.63;;
9763;SDS011;4921;43.214;27.936;2023-07-31T13:02:25;4.73;;;3.40;;
9763;SDS011;4921;43.214;27.936;2023-07-31T13:04:53;3.10;;;2.70;;
9763;SDS011;4921;43.214;27.936;2023-07-31T13:07:21;3.63;;;3.30;;
9763;SDS011;4921;43.214;27.936;2023-07-31T13:09:48;10.90;;;5.50;;
9763;SDS011;4921;43.214;27.936;2023-07-31T13:12:16;9.17;;;4.60;;
9763;SDS011;4921;43.214;27.936;2023-07-31T13:14:43;7.57;;;4.50;;
9763;SDS011;4921;43.214;27.936;2023-07-31T13:17:18;4.03;;;3.57;;
9763;SDS011;4921;43.214;27.936;2023-07-31T13:20:00;6.13;;;4.10;;
9763;SDS011;4921;43.214;27.936;2023-07-31T13:22:36;3.60;;;3.40;;
9763;SDS011;4921;43.214;27.936;2023-07-31T13:25:03;3.67;;;3.20;;
9763;SDS011;4921;43.214;27.936;2023-07-31T13:27:31;3.97;;;3.57;;
9763;SDS011;4921;43.214;27.936;2023-07-31T13:29:58;13.17;;;12.07;;
9763;SDS011;4921;43.214;27.936;2023-07-31T13:32:26;16.97;;;15.77;;
9763;SDS011;4921;43.214;27.936;2023-07-31T13:34:54;11.67;;;10.80;;
9763;SDS011;4921;43.214;27.936;2023-07-31T13:37:22;28.87;;;26.87;;
9763;SDS011;4921;43.214;27.936;2023-07-31T13:39:49;29.93;;;27.70;;
9763;SDS011;4921;43.214;27.936;2023-07-31T13:42:16;4.33;;;3.93;;
9763;SDS011;4921;43.214;27.936;2023-07-31T13:44:43;9.93;;;9.07;;
9763;SDS011;4921;43.214;27.936;2023-07-31T13:47:10;9.93;;;9.23;;
9763;SDS011;4921;43.214;27.936;2023-07-31T13:49:37;15.23;;;14.03;;
9763;SDS011;4921;43.214;27.936;2023-07-31T13:52:07;4.77;;;4.10;;
9763;SDS011;4921;43.214;27.936;2023-07-31T13:54:34;15.13;;;13.73;;
9763;SDS011;4921;43.214;27.936;2023-07-31T13:57:01;20.70;;;18.63;;
9763;SDS011;4921;43.214;27.936;2023-07-31T13:59:28;15.90;;;14.53;;
9763;SDS011;4921;43.214;27.936;2023-07-31T14:01:56;8.57;;;7.87;;
9763;SDS011;4921;43.214;27.936;2023-07-31T14:04:23;4.53;;;4.13;;
9763;SDS011;4921;43.214;27.936;2023-07-31T14:06:50;3.87;;;3.50;;
9763;SDS011;4921;43.214;27.936;2023-07-31T14:09:18;6.53;;;5.93;;
9763;SDS011;4921;43.214;27.936;2023-07-31T14:11:48;8.33;;;5.33;;
9763;SDS011;4921;43.214;27.936;2023-07-31T14:14:15;6.10;;;3.63;;
9763;SDS011;4921;43.214;27.936;2023-07-31T14:16:48;7.43;;;5.17;;
9763;SDS011;4921;43.214;27.936;2023-07-31T14:19:16;4.03;;;3.60;;
9763;SDS011;4921;43.214;27.936;2023-07-31T14:21:43;4.40;;;3.93;;
9763;SDS011;4921;43.214;27.936;2023-07-31T14:24:12;4.57;;;4.00;;
9763;SDS011;4921;43.214;27.936;2023-07-31T14:26:41;4.50;;;4.10;;
9763;SDS011;4921;43.214;27.936;2023-07-31T14:29:08;4.33;;;3.93;;
9763;SDS011;4921;43.214;27.936;2023-07-31T14:31:35;4.00;;;3.70;;
9763;SDS011;4921;43.214;27.936;2023-07-31T14:34:03;3.97;;;3.67;;
9763;SDS011;4921;43.214;27.936;2023-07-31T14:36:33;3.50;;;3.17;;
9763;SDS011;4921;43.214;27.936;2023-07-31T14:39:03;3.67;;;3.40;;
9763;SDS011;4921;43.214;27.936;2023-07-31T14:41:30;3.87;;;3.10;;
9763;SDS011;4921;43.214;27.936;2023-07-31T14:43:59;3.57;;;3.27;;
9763;SDS011;4921;43.214;27.936;2023-07-31T14:46:26;3.93;;;3.63;;
9763;SDS011;4921;43.214;27.936;2023-07-31T14:48:53;4.00;;;3.70;;
9763;SDS011;4921;43.214;27.936;2023-07-31T14:51:20;3.57;;;3.27;;
9763;SDS011;4921;43.214;27.936;2023-07-31T14:53:48;3.30;;;3.10;;
9763;SDS011;4921;43.214;27.936;2023-07-31T14:56:15;3.63;;;3.43;;
9763;SDS011;4921;43.214;27.936;2023-07-31T14:58:42;3.60;;;3.30;;
9763;SDS011;4921;43.214;27.936;2023-07-31T15:01:11;3.60;;;3.40;;
9763;SDS011;4921;43.214;27.936;2023-07-31T15:03:38;3.70;;;3.47;;
9763;SDS011;4921;43.214;27.936;2023-07-31T15:06:05;3.40;;;3.20;;
9763;SDS011;4921;43.214;27.936;2023-07-31T15:08:33;3.40;;;3.20;;
9763;SDS011;4921;43.214;27.936;2023-07-31T15:11:02;3.50;;;3.20;;